Time;durP1;ratioP1;P1;durP2;ratioP2;P2;SDS_P1;SDS_P2;PMS_P1;PMS_P2;Temp;Humidity;BMP_temperature;BMP_pressure;BME280_temperature;BME280_humidity;BME280_pressure;Samples;Min_cycle;Max_cycle;Signal;HPM_P1;HPM_P2
2021/11/29 00:01:27;;;;;;;0.60;0.60;;;;;;;7.10;67.72;98011.92;102822;1322;109571;-81
2021/11/29 00:03:55;;;;;;;0.60;0.60;;;;;;;7.12;67.57;98016.78;102614;1315;190620;-81
2021/11/29 00:06:23;;;;;;;0.60;0.60;;;;;;;7.16;67.84;98023.45;102875;1318;96651;-81
2021/11/29 00:08:51;;;;;;;0.70;0.70;;;;;;;7.23;67.49;98030.16;102660;1318;139651;-82
2021/11/29 00:11:20;;;;;;;0.70;0.70;;;;;;;7.20;67.53;98031.39;102743;1318;108225;-81
2021/11/29 00:13:47;;;;;;;0.60;0.60;;;;;;;7.19;67.41;98031.94;102671;1318;111676;-82
2021/11/29 00:16:15;;;;;;;0.60;0.60;;;;;;;7.10;67.53;98031.01;102638;1318;140029;-82
2021/11/29 00:18:43;;;;;;;0.60;0.60;;;;;;;7.06;67.59;98029.09;102822;1315;97083;-82
2021/11/29 00:21:13;;;;;;;0.50;0.50;;;;;;;7.02;67.69;98032.99;102601;1318;138794;-81
2021/11/29 00:23:45;;;;;;;0.60;0.60;;;;;;;6.97;67.96;98026.55;102769;1318;111719;-81
2021/11/29 00:26:14;;;;;;;0.70;0.70;;;;;;;7.05;67.91;98022.62;102760;1318;140571;-82
2021/11/29 00:28:43;;;;;;;0.60;0.60;;;;;;;7.12;67.71;98023.51;102748;1315;96545;-81
2021/11/29 00:31:11;;;;;;;0.60;0.60;;;;;;;7.17;67.77;98024.28;102724;1318;108420;-81
2021/11/29 00:33:39;;;;;;;0.70;0.70;;;;;;;7.17;67.44;98018.27;102688;1318;139266;-81
2021/11/29 00:36:07;;;;;;;0.60;0.60;;;;;;;7.05;67.50;98019.23;102767;1318;97076;-81
2021/11/29 00:38:37;;;;;;;0.60;0.60;;;;;;;6.97;67.74;98018.05;102499;1320;138348;-81
2021/11/29 00:41:05;;;;;;;0.60;0.60;;;;;;;6.95;67.85;98011.98;102779;1318;109526;-81
2021/11/29 00:43:33;;;;;;;0.60;0.60;;;;;;;6.95;68.05;98002.80;102701;1318;111740;-81
2021/11/29 00:46:01;;;;;;;0.60;0.60;;;;;;;7.04;68.04;97996.55;102563;1319;140689;-81
2021/11/29 00:48:29;;;;;;;0.60;0.60;;;;;;;7.07;67.66;97987.38;102795;1318;96445;-81
2021/11/29 00:50:57;;;;;;;0.60;0.60;;;;;;;7.02;67.81;97992.93;102719;1318;139930;-82
2021/11/29 00:53:25;;;;;;;0.60;0.60;;;;;;;6.99;67.85;97996.45;102766;1318;111546;-81
2021/11/29 00:55:53;;;;;;;0.60;0.60;;;;;;;6.98;67.98;97998.94;102626;1318;138965;-81
2021/11/29 00:58:21;;;;;;;0.60;0.60;;;;;;;7.01;68.05;97998.27;102806;1318;97086;-81
2021/11/29 01:00:49;;;;;;;0.60;0.60;;;;;;;7.06;68.02;98000.52;102775;1318;106510;-81
2021/11/29 01:03:17;;;;;;;0.60;0.60;;;;;;;7.10;67.68;97997.31;102684;1318;140627;-81
2021/11/29 01:05:45;;;;;;;0.70;0.70;;;;;;;7.13;67.63;97995.90;102696;1318;95937;-82
2021/11/29 01:08:12;;;;;;;0.60;0.60;;;;;;;7.10;67.58;97998.86;102690;1318;140157;-81
2021/11/29 01:10:40;;;;;;;0.60;0.60;;;;;;;7.05;67.76;98007.44;102716;1318;107350;-81
2021/11/29 01:13:08;;;;;;;0.60;0.60;;;;;;;6.97;67.84;98005.34;102724;1318;110128;-80
2021/11/29 01:15:37;;;;;;;0.70;0.70;;;;;;;6.92;68.09;98000.48;102603;1318;138460;-81
2021/11/29 01:18:11;;;;;;;0.50;0.50;;;;;;;6.91;68.03;97999.48;102826;1318;96543;-81
2021/11/29 01:20:42;;;;;;;0.60;0.60;;;;;;;6.84;68.30;98001.95;102663;1318;139981;-81
2021/11/29 01:23:11;;;;;;;0.50;0.50;;;;;;;6.89;68.45;97993.91;102852;1318;110596;-81
2021/11/29 01:25:40;;;;;;;0.60;0.60;;;;;;;6.95;68.10;97985.53;102873;1316;96600;-81
2021/11/29 01:28:08;;;;;;;0.60;0.60;;;;;;;6.91;68.19;97983.23;102637;1318;138036;-81
2021/11/29 01:30:36;;;;;;;0.50;0.50;;;;;;;6.76;68.33;97986.11;102798;1315;108522;-81
2021/11/29 01:33:05;;;;;;;0.60;0.60;;;;;;;6.79;68.64;97983.86;102661;1318;138426;-81
2021/11/29 01:35:34;;;;;;;0.60;0.60;;;;;;;6.76;68.55;97984.54;102596;1321;96659;-81
2021/11/29 01:38:02;;;;;;;0.60;0.60;;;;;;;6.68;68.64;97981.55;102833;1318;138777;-82
2021/11/29 01:40:30;;;;;;;0.60;0.60;;;;;;;6.62;68.76;97976.05;102830;1318;109796;-81
2021/11/29 01:42:59;;;;;;;0.60;0.60;;;;;;;6.61;68.91;97964.79;102774;1316;110529;-81
2021/11/29 01:45:29;;;;;;;0.60;0.60;;;;;;;6.55;68.72;97965.10;102686;1315;139540;-81
2021/11/29 01:47:57;;;;;;;0.60;0.60;;;;;;;6.47;68.94;97969.56;102824;1318;97003;-82
2021/11/29 01:50:26;;;;;;;0.60;0.60;;;;;;;6.42;69.17;97975.10;102679;1318;140213;-82
2021/11/29 01:52:54;;;;;;;0.60;0.60;;;;;;;6.35;68.88;97977.34;102657;1318;111683;-82
2021/11/29 01:55:21;;;;;;;0.60;0.60;;;;;;;6.26;69.44;97976.54;102834;1318;96634;-81
2021/11/29 01:57:49;;;;;;;0.60;0.60;;;;;;;6.24;69.32;97972.41;102702;1318;138582;-81
2021/11/29 02:00:25;;;;;;;0.60;0.60;;;;;;;6.21;69.44;97972.20;102846;1318;109681;-81
2021/11/29 02:02:55;;;;;;;0.60;0.60;;;;;;;6.27;69.22;97974.59;102726;1318;138677;-81
2021/11/29 02:05:26;;;;;;;0.60;0.60;;;;;;;6.18;68.93;97972.17;102768;1318;97831;-81
2021/11/29 02:07:54;;;;;;;0.70;0.70;;;;;;;6.17;69.29;97978.35;102743;1316;140166;-82
2021/11/29 02:10:24;;;;;;;0.70;0.70;;;;;;;6.18;69.24;97986.62;102665;1318;108183;-82
2021/11/29 02:12:52;;;;;;;0.70;0.70;;;;;;;6.08;69.32;97990.77;102832;1318;110936;-83
2021/11/29 02:15:21;;;;;;;0.70;0.70;;;;;;;6.07;69.33;97989.79;102695;1318;138748;-81
2021/11/29 02:17:49;;;;;;;0.60;0.60;;;;;;;6.17;69.50;97978.21;102765;1318;96574;-82
2021/11/29 02:20:18;;;;;;;0.60;0.60;;;;;;;6.22;69.00;97968.98;102665;1318;139310;-82
2021/11/29 02:22:46;;;;;;;0.70;0.70;;;;;;;6.10;69.02;97958.80;102699;1317;111595;-82
2021/11/29 02:25:18;;;;;;;0.70;0.70;;;;;;;6.02;69.31;97956.16;102762;1318;97049;-81
2021/11/29 02:27:49;;;;;;;0.60;0.60;;;;;;;6.00;69.59;97957.13;102847;1318;139253;-81
2021/11/29 02:30:19;;;;;;;0.60;0.60;;;;;;;6.02;69.64;97960.06;102886;1318;109522;-82
2021/11/29 02:32:47;;;;;;;0.70;0.70;;;;;;;5.94;69.52;97965.33;102332;1321;139284;-82
2021/11/29 02:35:15;;;;;;;0.70;0.70;;;;;;;5.85;69.59;97972.77;102807;1318;97063;-82
2021/11/29 02:37:43;;;;;;;0.70;0.70;;;;;;;5.74;69.87;97971.52;102752;1318;97316;-81
2021/11/29 02:40:11;;;;;;;0.70;0.70;;;;;;;5.65;70.15;97976.33;102676;1319;140087;-82
2021/11/29 02:42:39;;;;;;;0.60;0.60;;;;;;;5.66;70.14;97971.36;102797;1318;111921;-82
2021/11/29 02:45:07;;;;;;;0.70;0.70;;;;;;;5.60;70.33;97973.23;102736;1318;140831;-81
2021/11/29 02:47:35;;;;;;;0.70;0.70;;;;;;;5.63;70.27;97974.66;102816;1318;96548;-82
2021/11/29 02:50:04;;;;;;;0.70;0.70;;;;;;;5.48;70.27;97972.33;102644;1318;141002;-81
2021/11/29 02:52:31;;;;;;;0.80;0.80;;;;;;;5.43;70.44;97970.44;102808;1318;111676;-81
2021/11/29 02:54:59;;;;;;;0.70;0.70;;;;;;;5.37;70.76;97976.02;102828;1318;96914;-82
2021/11/29 02:57:27;;;;;;;0.80;0.80;;;;;;;5.41;70.82;97975.48;102733;1318;140450;-81
2021/11/29 02:59:55;;;;;;;0.80;0.80;;;;;;;5.43;70.67;97980.85;102727;1319;110056;-81
2021/11/29 03:02:23;;;;;;;0.70;0.70;;;;;;;5.41;70.57;97982.16;102693;1318;140792;-82
2021/11/29 03:04:51;;;;;;;0.80;0.80;;;;;;;5.44;70.61;97985.39;102786;1315;97561;-81
2021/11/29 03:07:19;;;;;;;0.70;0.70;;;;;;;5.43;70.42;97990.54;102793;1318;97786;-82
2021/11/29 03:09:46;;;;;;;0.80;0.80;;;;;;;5.33;70.31;97994.62;102606;1318;139915;-82
2021/11/29 03:12:15;;;;;;;0.70;0.70;;;;;;;5.24;70.03;97988.18;102792;1318;111262;-81
2021/11/29 03:14:43;;;;;;;0.70;0.70;;;;;;;5.16;70.36;97985.89;102664;1319;140526;-82
2021/11/29 03:17:11;;;;;;;0.70;0.70;;;;;;;5.09;70.38;97988.13;102998;1318;96594;-81
2021/11/29 03:19:40;;;;;;;0.80;0.80;;;;;;;5.00;70.45;97984.61;102736;1318;109450;-82
2021/11/29 03:22:12;;;;;;;0.80;0.80;;;;;;;5.02;70.40;97980.84;102697;1318;138598;-81
2021/11/29 03:24:46;;;;;;;0.70;0.70;;;;;;;5.04;70.31;97980.77;102786;1318;97058;-81
2021/11/29 03:27:15;;;;;;;0.80;0.80;;;;;;;5.02;70.34;97972.94;102771;1318;138790;-82
2021/11/29 03:29:47;;;;;;;0.80;0.80;;;;;;;4.95;70.23;97970.27;102836;1318;108331;-82
2021/11/29 03:32:18;;;;;;;0.80;0.80;;;;;;;4.95;70.34;97970.07;102667;1318;140001;-82
2021/11/29 03:34:46;;;;;;;0.80;0.80;;;;;;;4.85;70.10;97971.02;102873;1318;96664;-82
2021/11/29 03:37:18;;;;;;;0.80;0.80;;;;;;;4.70;70.25;97974.66;102856;1318;96966;-81
2021/11/29 03:39:45;;;;;;;0.90;0.90;;;;;;;4.60;70.61;97977.85;102659;1318;138239;-80
2021/11/29 03:42:13;;;;;;;0.80;0.80;;;;;;;4.56;70.77;97979.98;102815;1318;110691;-80
2021/11/29 03:44:41;;;;;;;0.80;0.80;;;;;;;4.58;70.77;97986.23;102621;1318;139226;-82
2021/11/29 03:47:09;;;;;;;0.80;0.80;;;;;;;4.51;70.66;97988.60;102862;1318;97116;-82
2021/11/29 03:49:37;;;;;;;0.90;0.90;;;;;;;4.37;70.90;97985.80;102847;1318;108728;-82
2021/11/29 03:52:05;;;;;;;0.80;0.80;;;;;;;4.34;71.06;97977.33;102719;1318;139593;-82
2021/11/29 03:54:33;;;;;;;0.80;0.80;;;;;;;4.33;71.20;97983.49;102822;1318;96456;-81
2021/11/29 03:57:01;;;;;;;0.80;0.80;;;;;;;4.37;71.21;97985.80;102727;1315;138037;-82
2021/11/29 03:59:29;;;;;;;0.80;0.80;;;;;;;4.39;71.16;97982.91;102824;1318;107697;-82
2021/11/29 04:01:56;;;;;;;0.80;0.80;;;;;;;4.33;70.91;97983.19;102645;1318;139955;-83
2021/11/29 04:04:24;;;;;;;0.80;0.80;;;;;;;4.23;71.13;97981.63;102749;1318;96583;-81
2021/11/29 04:06:52;;;;;;;0.80;0.80;;;;;;;4.22;71.25;97982.53;102755;1320;97071;-82
2021/11/29 04:09:20;;;;;;;0.80;0.80;;;;;;;4.20;71.42;97978.58;102722;1318;139225;-82
2021/11/29 04:11:48;;;;;;;0.90;0.90;;;;;;;4.21;71.45;97982.74;102777;1318;109940;-83
2021/11/29 04:14:15;;;;;;;0.80;0.80;;;;;;;4.19;71.10;97989.48;102754;1318;141366;-81
2021/11/29 04:16:43;;;;;;;0.90;0.90;;;;;;;4.15;71.31;97995.30;102752;1320;96633;-82
2021/11/29 04:19:11;;;;;;;0.90;0.90;;;;;;;4.09;71.45;97994.98;102716;1318;109400;-81
2021/11/29 04:21:39;;;;;;;1.10;1.10;;;;;;;4.08;71.71;97994.16;102678;1318;137984;-82
2021/11/29 04:24:07;;;;;;;0.90;0.90;;;;;;;4.20;71.59;97986.14;102845;1318;96660;-82
2021/11/29 04:26:37;;;;;;;0.80;0.80;;;;;;;4.23;71.45;97986.70;102724;1318;138132;-82
2021/11/29 04:29:16;;;;;;;0.80;0.80;;;;;;;4.32;71.27;97985.84;102830;1318;108583;-82
2021/11/29 04:31:44;;;;;;;0.80;0.80;;;;;;;4.30;71.05;97978.02;102710;1318;110172;-81
2021/11/29 04:34:13;;;;;;;0.90;0.90;;;;;;;4.27;70.94;97976.18;102683;1318;139418;-81
2021/11/29 04:36:41;;;;;;;0.80;0.80;;;;;;;4.27;71.06;97984.29;102860;1322;97303;-82
2021/11/29 04:39:09;;;;;;;0.80;0.80;;;;;;;4.25;70.99;97985.95;102692;1318;140284;-81
2021/11/29 04:41:37;;;;;;;0.80;0.80;;;;;;;4.28;70.99;97983.70;102793;1318;111895;-81
2021/11/29 04:44:06;;;;;;;0.90;0.90;;;;;;;4.33;71.11;97984.20;102687;1318;139049;-82
2021/11/29 04:46:34;;;;;;;0.80;0.80;;;;;;;4.40;71.00;97981.98;102952;1318;96744;-81
2021/11/29 04:49:02;;;;;;;0.80;0.80;;;;;;;4.45;70.62;97980.73;102770;1319;109427;-82
2021/11/29 04:51:30;;;;;;;0.90;0.90;;;;;;;4.41;70.56;97983.20;102636;1319;139814;-81
2021/11/29 04:53:59;;;;;;;0.90;0.90;;;;;;;4.29;70.62;97989.27;102772;1318;97057;-80
2021/11/29 04:56:27;;;;;;;0.90;0.90;;;;;;;4.19;70.67;97986.17;102694;1318;138146;-81
2021/11/29 04:58:55;;;;;;;0.90;0.90;;;;;;;4.10;71.14;97976.69;102774;1318;109574;-81
2021/11/29 05:01:23;;;;;;;0.90;0.90;;;;;;;4.10;71.23;97975.81;102596;1318;111614;-80
2021/11/29 05:03:52;;;;;;;0.90;0.90;;;;;;;4.08;71.15;97979.05;102665;1318;138858;-81
2021/11/29 05:06:20;;;;;;;0.90;0.90;;;;;;;4.01;71.65;97984.94;102588;1320;96952;-81
2021/11/29 05:08:48;;;;;;;0.90;0.90;;;;;;;3.95;71.70;97989.21;102409;1318;139240;-80
2021/11/29 05:11:16;;;;;;;0.90;0.90;;;;;;;3.95;71.78;97997.27;102407;1318;111074;-80
2021/11/29 05:13:45;;;;;;;0.90;0.90;;;;;;;4.06;72.03;98002.33;102653;1318;97101;-81
2021/11/29 05:16:12;;;;;;;0.90;0.90;;;;;;;4.13;71.54;98000.80;102512;1319;137623;-81
2021/11/29 05:18:40;;;;;;;0.90;0.90;;;;;;;4.07;71.58;98004.55;102550;1318;105455;-80
2021/11/29 05:21:08;;;;;;;0.90;0.90;;;;;;;4.07;71.63;98009.27;102606;1319;139900;-80
2021/11/29 05:23:36;;;;;;;0.90;0.90;;;;;;;4.07;71.71;98021.06;102627;1318;96733;-80
2021/11/29 05:26:04;;;;;;;0.90;0.90;;;;;;;4.09;71.57;98030.46;102666;1318;137279;-81
2021/11/29 05:28:32;;;;;;;0.90;0.90;;;;;;;4.08;71.62;98028.23;102860;1318;109445;-80
2021/11/29 05:31:00;;;;;;;0.90;0.90;;;;;;;4.03;71.59;98028.92;102759;1319;109703;-80
2021/11/29 05:33:28;;;;;;;0.90;0.90;;;;;;;4.00;71.76;98036.23;102759;1318;140683;-81
2021/11/29 05:35:56;;;;;;;0.90;0.90;;;;;;;3.97;71.86;98038.11;102848;1318;96569;-80
2021/11/29 05:38:23;;;;;;;0.90;0.90;;;;;;;4.01;71.91;98043.92;102708;1318;138206;-80
2021/11/29 05:40:51;;;;;;;0.90;0.90;;;;;;;4.04;71.82;98047.66;102821;1319;111664;-81
2021/11/29 05:43:19;;;;;;;0.90;0.90;;;;;;;4.06;71.74;98056.57;102702;1318;96622;-80
2021/11/29 05:45:47;;;;;;;0.80;0.80;;;;;;;4.03;71.42;98060.38;102724;1318;139255;-80
2021/11/29 05:48:15;;;;;;;1.00;1.00;;;;;;;3.88;71.86;98061.82;102782;1318;109914;-81
2021/11/29 05:50:43;;;;;;;0.90;0.90;;;;;;;3.91;72.10;98060.81;102680;1320;140623;-81
2021/11/29 05:53:11;;;;;;;0.90;0.90;;;;;;;3.94;71.86;98060.88;102783;1318;96645;-81
2021/11/29 05:55:39;;;;;;;0.90;0.90;;;;;;;3.93;71.88;98056.15;102820;1318;96632;-81
2021/11/29 05:58:06;;;;;;;0.90;0.90;;;;;;;3.94;71.95;98054.57;102580;1318;139382;-80
2021/11/29 06:00:35;;;;;;;0.90;0.90;;;;;;;3.88;72.03;98056.53;102790;1319;109514;-81
2021/11/29 06:03:07;;;;;;;0.90;0.90;;;;;;;3.89;71.97;98048.24;102678;1318;139376;-81
2021/11/29 06:05:35;;;;;;;0.90;0.90;;;;;;;3.93;72.14;98040.73;102697;1319;97087;-80
2021/11/29 06:08:03;;;;;;;1.00;1.00;;;;;;;3.96;72.04;98038.52;102725;1318;137891;-80
2021/11/29 06:10:31;;;;;;;0.90;0.90;;;;;;;3.91;71.71;98037.14;102673;1318;110592;-80
2021/11/29 06:12:59;;;;;;;0.90;0.90;;;;;;;3.81;71.92;98041.13;102769;1318;96660;-80
2021/11/29 06:15:27;;;;;;;0.80;0.80;;;;;;;3.85;72.02;98053.10;102718;1318;139835;-82
2021/11/29 06:17:55;;;;;;;0.90;0.90;;;;;;;3.83;72.03;98057.92;102795;1318;108169;-80
2021/11/29 06:20:22;;;;;;;1.10;1.10;;;;;;;3.80;71.98;98058.40;102671;1324;140147;-82
2021/11/29 06:22:53;;;;;;;1.00;1.00;;;;;;;3.78;71.98;98058.30;102715;1318;96639;-79
2021/11/29 06:25:23;;;;;;;1.00;1.00;;;;;;;3.81;72.17;98061.88;102841;1318;96195;-81
2021/11/29 06:27:51;;;;;;;0.90;0.90;;;;;;;3.81;71.94;98065.03;102600;1318;138899;-81
2021/11/29 06:30:19;;;;;;;1.20;1.20;;;;;;;3.82;72.17;98071.67;102735;1318;112000;-81
2021/11/29 06:32:48;;;;;;;0.90;0.90;;;;;;;3.80;71.90;98069.27;102679;1318;138292;-81
2021/11/29 06:35:17;;;;;;;0.90;0.90;;;;;;;3.80;71.82;98072.64;102883;1318;96638;-82
2021/11/29 06:37:49;;;;;;;0.90;0.90;;;;;;;3.84;71.75;98075.98;102628;1319;109305;-81
2021/11/29 06:40:17;;;;;;;0.90;0.90;;;;;;;3.85;71.79;98072.42;102472;1320;139802;-81
2021/11/29 06:42:45;;;;;;;1.00;1.00;;;;;;;3.82;71.70;98075.52;102760;1318;96601;-81
2021/11/29 06:45:16;;;;;;;1.10;1.10;;;;;;;3.93;71.56;98079.00;102816;1319;138649;-82
2021/11/29 06:47:43;;;;;;;0.90;0.90;;;;;;;3.96;71.38;98080.09;102691;1318;109299;-81
2021/11/29 06:50:12;;;;;;;0.90;0.90;;;;;;;4.09;71.41;98076.29;102766;1319;139888;-82
2021/11/29 06:52:40;;;;;;;0.90;0.90;;;;;;;4.12;70.89;98069.33;102864;1316;96627;-81
2021/11/29 06:55:12;;;;;;;0.90;0.90;;;;;;;4.11;70.72;98067.27;102781;1318;96457;-82
2021/11/29 06:57:41;;;;;;;0.80;0.80;;;;;;;4.09;70.75;98070.87;102667;1319;138608;-82
2021/11/29 07:00:11;;;;;;;0.90;0.90;;;;;;;4.06;70.56;98081.34;102878;1319;111927;-83
2021/11/29 07:02:41;;;;;;;0.90;0.90;;;;;;;4.00;70.64;98089.98;102711;1318;139669;-82
2021/11/29 07:05:10;;;;;;;0.90;0.90;;;;;;;3.97;70.40;98090.42;102772;1318;96946;-82
2021/11/29 07:07:38;;;;;;;0.90;0.90;;;;;;;3.95;70.36;98095.06;102812;1317;108546;-83
2021/11/29 07:10:07;;;;;;;0.90;0.90;;;;;;;3.94;70.81;98099.15;102601;1318;140210;-82
2021/11/29 07:12:35;;;;;;;0.90;0.90;;;;;;;3.96;70.87;98100.45;102874;1319;98253;-83
2021/11/29 07:15:06;;;;;;;0.90;0.90;;;;;;;3.95;70.67;98102.79;102589;1318;139249;-83
2021/11/29 07:17:34;;;;;;;1.00;1.00;;;;;;;3.94;70.44;98106.16;102747;1319;110012;-82
2021/11/29 07:20:07;;;;;;;0.80;0.80;;;;;;;3.86;70.29;98116.98;102734;1318;137388;-82
2021/11/29 07:22:35;;;;;;;1.00;1.00;;;;;;;3.78;70.80;98118.33;102860;1319;96664;-83
2021/11/29 07:25:04;;;;;;;0.80;0.80;;;;;;;3.77;70.49;98121.50;102798;1318;97034;-82
2021/11/29 07:27:34;;;;;;;0.90;0.90;;;;;;;3.84;70.84;98126.35;102758;1317;138727;-82
2021/11/29 07:30:05;;;;;;;0.90;0.90;;;;;;;3.83;70.31;98128.85;102960;1318;111668;-82
2021/11/29 07:32:33;;;;;;;0.90;0.90;;;;;;;3.74;70.58;98127.05;102830;1319;138444;-82
2021/11/29 07:35:01;;;;;;;0.90;0.90;;;;;;;3.69;70.49;98127.23;102822;1323;96620;-81
2021/11/29 07:37:29;;;;;;;1.00;1.00;;;;;;;3.67;70.85;98123.98;102765;1318;109848;-81
2021/11/29 07:39:57;;;;;;;0.90;0.90;;;;;;;3.75;70.82;98130.02;102673;1318;140966;-81
2021/11/29 07:42:25;;;;;;;0.90;0.90;;;;;;;3.78;70.47;98129.57;102813;1318;97149;-82
2021/11/29 07:44:54;;;;;;;1.10;1.10;;;;;;;3.72;70.47;98133.08;102637;1318;139614;-81
2021/11/29 07:47:23;;;;;;;0.90;0.90;;;;;;;3.72;70.62;98135.90;102656;1319;108841;-83
2021/11/29 07:49:52;;;;;;;1.00;1.00;;;;;;;3.79;70.73;98132.13;102804;1318;110646;-81
2021/11/29 07:52:21;;;;;;;0.90;0.90;;;;;;;3.79;70.53;98131.09;102569;1322;137503;-82
2021/11/29 07:54:49;;;;;;;1.00;1.00;;;;;;;3.79;70.68;98129.17;102769;1318;96546;-82
2021/11/29 07:57:17;;;;;;;0.90;0.90;;;;;;;3.78;70.61;98132.34;102652;1320;141146;-84
2021/11/29 07:59:46;;;;;;;0.90;0.90;;;;;;;3.81;70.30;98129.79;102764;1320;110409;-82
2021/11/29 08:02:19;;;;;;;0.90;0.90;;;;;;;3.77;70.29;98129.77;102692;1319;140331;-82
2021/11/29 08:04:47;;;;;;;0.90;0.90;;;;;;;3.68;70.39;98133.57;102631;1318;96654;-83
2021/11/29 08:07:17;;;;;;;1.00;1.00;;;;;;;3.61;70.56;98134.19;102758;1316;109690;-82
2021/11/29 08:09:45;;;;;;;0.80;0.80;;;;;;;3.61;70.96;98129.80;102680;1319;140548;-81
2021/11/29 08:12:13;;;;;;;0.90;0.90;;;;;;;3.61;70.74;98126.11;102762;1318;96669;-82
2021/11/29 08:14:41;;;;;;;0.90;0.90;;;;;;;3.53;71.22;98128.67;102627;1318;139780;-81
2021/11/29 08:17:09;;;;;;;0.90;0.90;;;;;;;3.53;71.35;98128.48;102738;1319;107981;-80
2021/11/29 08:19:36;;;;;;;1.10;1.10;;;;;;;3.53;71.43;98136.73;102735;1319;111653;-82
2021/11/29 08:22:04;;;;;;;1.00;1.00;;;;;;;3.50;71.30;98143.84;102670;1318;139888;-82
2021/11/29 08:24:32;;;;;;;0.90;0.90;;;;;;;3.46;71.42;98142.25;102757;1319;96590;-81
2021/11/29 08:27:00;;;;;;;0.90;0.90;;;;;;;3.51;71.81;98145.06;102713;1314;139681;-82
2021/11/29 08:29:29;;;;;;;1.00;1.00;;;;;;;3.56;71.57;98144.35;102658;1322;109581;-82
2021/11/29 08:31:57;;;;;;;0.90;0.90;;;;;;;3.58;71.48;98145.86;102633;1318;141909;-82
2021/11/29 08:34:25;;;;;;;1.00;1.00;;;;;;;3.59;71.50;98143.38;102811;1318;96550;-82
2021/11/29 08:36:53;;;;;;;1.00;1.00;;;;;;;3.51;71.25;98141.89;102789;1318;108983;-81
2021/11/29 08:39:20;;;;;;;0.90;0.90;;;;;;;3.44;71.34;98137.41;102614;1318;140650;-81
2021/11/29 08:41:48;;;;;;;0.90;0.90;;;;;;;3.41;71.54;98138.20;102641;1318;96570;-81
2021/11/29 08:44:16;;;;;;;0.90;0.90;;;;;;;3.40;71.87;98135.44;102721;1318;140120;-80
2021/11/29 08:46:49;;;;;;;0.90;0.90;;;;;;;3.37;71.63;98130.27;102621;1319;109981;-81
2021/11/29 08:49:19;;;;;;;1.00;1.00;;;;;;;3.39;71.75;98130.54;102663;1318;112146;-81
2021/11/29 08:51:47;;;;;;;0.90;0.90;;;;;;;3.41;71.86;98127.83;102481;1319;140477;-81
2021/11/29 08:54:15;;;;;;;0.90;0.90;;;;;;;3.44;71.67;98126.86;102493;1318;97308;-80
2021/11/29 08:56:46;;;;;;;0.90;0.90;;;;;;;3.45;71.88;98121.90;102403;1319;136732;-81
2021/11/29 08:59:19;;;;;;;1.10;1.10;;;;;;;3.48;71.85;98117.42;102355;1322;112052;-80
2021/11/29 09:01:49;;;;;;;0.90;0.90;;;;;;;3.58;71.85;98119.02;102465;1323;96509;-81
2021/11/29 09:04:18;;;;;;;0.90;0.90;;;;;;;3.61;71.47;98119.80;102450;1318;141151;-81
2021/11/29 09:06:46;;;;;;;1.00;1.00;;;;;;;3.56;71.49;98122.77;102362;1319;109405;-80
2021/11/29 09:09:14;;;;;;;1.10;1.10;;;;;;;3.51;71.72;98126.80;102283;1321;139085;-81
2021/11/29 09:11:42;;;;;;;1.00;1.00;;;;;;;3.47;71.64;98128.52;102345;1324;95337;-81
2021/11/29 09:14:11;;;;;;;0.90;0.90;;;;;;;3.48;71.99;98134.61;102324;1318;139330;-80
2021/11/29 09:16:39;;;;;;;0.90;0.90;;;;;;;3.49;71.98;98144.61;102393;1319;108386;-81
2021/11/29 09:19:07;;;;;;;1.00;1.00;;;;;;;3.41;71.87;98151.16;102322;1320;111655;-82
2021/11/29 09:21:35;;;;;;;1.00;1.00;;;;;;;3.42;72.17;98147.30;102276;1319;138492;-80
2021/11/29 09:24:03;;;;;;;0.90;0.90;;;;;;;3.43;72.08;98141.98;102491;1318;96628;-80
2021/11/29 09:26:31;;;;;;;0.90;0.90;;;;;;;3.37;71.97;98146.38;102407;1322;138453;-81
2021/11/29 09:28:59;;;;;;;1.10;1.10;;;;;;;3.35;72.26;98153.83;102497;1320;111699;-81
2021/11/29 09:31:27;;;;;;;1.00;1.00;;;;;;;3.38;72.51;98155.14;102510;1320;95827;-82
2021/11/29 09:33:55;;;;;;;0.90;0.90;;;;;;;3.47;72.42;98151.48;102433;1323;139026;-80
2021/11/29 09:36:23;;;;;;;0.90;0.90;;;;;;;3.50;71.96;98146.14;102701;1317;107735;-81
2021/11/29 09:38:51;;;;;;;0.90;0.90;;;;;;;3.41;71.84;98139.59;102596;1319;138429;-81
2021/11/29 09:41:21;;;;;;;1.00;1.00;;;;;;;3.41;72.14;98138.02;102697;1318;96830;-81
2021/11/29 09:43:49;;;;;;;1.00;1.00;;;;;;;3.43;72.03;98136.38;102726;1320;97036;-81
2021/11/29 09:46:17;;;;;;;1.00;1.00;;;;;;;3.42;72.08;98135.89;102671;1318;137668;-80
2021/11/29 09:48:45;;;;;;;0.90;0.90;;;;;;;3.44;72.00;98138.27;102722;1320;110854;-81
2021/11/29 09:51:32;;;;;;;1.00;1.00;;;;;;;3.47;72.23;98139.58;102602;1319;139166;-82
2021/11/29 09:54:01;;;;;;;0.90;0.90;;;;;;;3.49;71.80;98139.51;102849;1318;97105;-81
2021/11/29 09:56:29;;;;;;;0.90;0.90;;;;;;;3.44;71.89;98137.02;102565;1324;139932;-80
2021/11/29 09:58:57;;;;;;;0.90;0.90;;;;;;;3.42;71.94;98141.33;102675;1319;112401;-81
2021/11/29 10:01:25;;;;;;;1.00;1.00;;;;;;;3.45;72.13;98147.17;102792;1320;97693;-82
2021/11/29 10:04:04;;;;;;;1.00;1.00;;;;;;;3.46;71.97;98148.54;102671;1320;139186;-81
2021/11/29 10:06:32;;;;;;;0.90;0.90;;;;;;;3.45;71.75;98143.14;102777;1319;109172;-81
2021/11/29 10:09:02;;;;;;;0.90;0.90;;;;;;;3.46;71.92;98136.96;102613;1319;140106;-81
2021/11/29 10:11:30;;;;;;;1.00;1.00;;;;;;;3.47;72.09;98135.36;102800;1318;96617;-82
2021/11/29 10:14:08;;;;;;;1.10;1.10;;;;;;;3.45;72.00;98134.38;102678;1324;139493;-81
2021/11/29 10:16:42;;;;;;;0.90;0.90;;;;;;;3.54;72.23;98136.17;102806;1318;108780;-81
2021/11/29 10:19:31;;;;;;;0.90;0.90;;;;;;;3.61;71.93;98135.95;102702;1319;111665;-81
2021/11/29 10:22:20;;;;;;;1.00;1.00;;;;;;;3.60;72.05;98133.17;102573;1318;140190;-83
2021/11/29 10:24:49;;;;;;;1.00;1.00;;;;;;;3.61;71.85;98130.33;102757;1322;96561;-81
2021/11/29 10:27:37;;;;;;;0.80;0.80;;;;;;;3.67;72.01;98130.27;102639;1318;138931;-81
2021/11/29 10:30:06;;;;;;;0.90;0.90;;;;;;;3.74;71.73;98127.75;102737;1319;110105;-82
2021/11/29 10:32:39;;;;;;;1.00;1.00;;;;;;;3.79;71.66;98125.31;102694;1322;137448;-81
2021/11/29 10:35:08;;;;;;;1.00;1.00;;;;;;;3.82;71.34;98128.52;102758;1319;98470;-81
2021/11/29 10:37:39;;;;;;;0.90;0.90;;;;;;;3.85;71.31;98129.11;102807;1319;107879;-80
2021/11/29 10:40:10;;;;;;;0.90;0.90;;;;;;;3.87;70.93;98133.62;102579;1319;137633;-81
2021/11/29 10:42:38;;;;;;;1.00;1.00;;;;;;;3.77;70.88;98132.92;102881;1320;97264;-80
2021/11/29 10:45:09;;;;;;;1.00;1.00;;;;;;;3.68;71.07;98141.48;102411;1319;138506;-80
2021/11/29 10:47:36;;;;;;;1.00;1.00;;;;;;;3.65;71.18;98142.64;102617;1324;107972;-79
2021/11/29 10:50:06;;;;;;;0.90;0.90;;;;;;;3.64;71.59;98143.20;102657;1318;137823;-81
2021/11/29 10:52:34;;;;;;;1.00;1.00;;;;;;;3.67;71.68;98141.70;102863;1318;96581;-80
2021/11/29 10:55:02;;;;;;;1.00;1.00;;;;;;;3.65;71.65;98140.20;102708;1319;96876;-80
2021/11/29 10:57:30;;;;;;;1.00;1.00;;;;;;;3.64;71.64;98139.86;102709;1318;140245;-80
2021/11/29 10:59:58;;;;;;;0.90;0.90;;;;;;;3.72;71.63;98135.55;102574;1318;111535;-78
2021/11/29 11:02:28;;;;;;;1.00;1.00;;;;;;;3.75;71.65;98135.65;102240;1316;140510;-80
2021/11/29 11:05:09;;;;;;;1.00;1.00;;;;;;;3.71;71.44;98133.50;102901;1318;96591;-82
2021/11/29 11:07:39;;;;;;;0.90;0.90;;;;;;;3.76;71.36;98129.11;102802;1320;110075;-82
2021/11/29 11:10:13;;;;;;;0.90;0.90;;;;;;;3.76;71.25;98126.13;102660;1320;137543;-82
2021/11/29 11:12:42;;;;;;;0.90;0.90;;;;;;;3.77;71.52;98122.73;102793;1318;97011;-81
2021/11/29 11:15:14;;;;;;;0.90;0.90;;;;;;;3.79;71.40;98120.21;102694;1318;139699;-82
2021/11/29 11:18:02;;;;;;;0.90;0.90;;;;;;;3.79;71.43;98115.83;102789;1318;109629;-83
2021/11/29 11:20:30;;;;;;;0.80;0.80;;;;;;;3.79;71.39;98115.11;102676;1318;140946;-83
2021/11/29 11:22:58;;;;;;;0.90;0.90;;;;;;;3.89;71.82;98111.79;102705;1321;97033;-82
2021/11/29 11:25:32;;;;;;;0.90;0.90;;;;;;;3.95;71.43;98107.19;102773;1318;96695;-83
2021/11/29 11:28:05;;;;;;;0.90;0.90;;;;;;;4.01;71.69;98111.88;102757;1321;140666;-82
2021/11/29 11:30:36;;;;;;;0.90;0.90;;;;;;;4.04;71.39;98110.73;102856;1318;111043;-82
2021/11/29 11:33:10;;;;;;;0.80;0.80;;;;;;;3.95;71.25;98106.28;102771;1318;140594;-84
2021/11/29 11:35:43;;;;;;;0.80;0.80;;;;;;;3.88;71.59;98109.38;102778;1319;96947;-82